sensor_id;sensor_type;location;lat;lon;timestamp;pressure;altitude;pressure_sealevel;temperature;humidity
77240;BME280;66258;53.170;-2.240;2024-03-02T00:00:05;97843.50;;;13.97;72.63
77240;BME280;66258;53.170;-2.240;2024-03-02T00:02:32;97835.94;;;13.99;72.68
77240;BME280;66258;53.170;-2.240;2024-03-02T00:04:59;97835.84;;;14.11;72.26
77240;BME280;66258;53.170;-2.240;2024-03-02T00:07:25;97833.53;;;14.20;71.97
77240;BME280;66258;53.170;-2.240;2024-03-02T00:09:53;97834.34;;;14.20;71.85
77240;BME280;66258;53.170;-2.240;2024-03-02T00:12:20;97831.84;;;14.35;71.45
77240;BME280;66258;53.170;-2.240;2024-03-02T00:14:47;97837.97;;;14.42;71.40
77240;BME280;66258;53.170;-2.240;2024-03-02T00:17:21;97836.50;;;14.57;71.12
77240;BME280;66258;53.170;-2.240;2024-03-02T00:19:51;97836.59;;;14.62;70.92
77240;BME280;66258;53.170;-2.240;2024-03-02T00:22:18;97835.59;;;14.68;70.76
77240;BME280;66258;53.170;-2.240;2024-03-02T00:24:44;97832.34;;;14.49;70.45
77240;BME280;66258;53.170;-2.240;2024-03-02T00:27:14;97826.59;;;14.29;70.83
77240;BME280;66258;53.170;-2.240;2024-03-02T00:29:42;97824.44;;;14.31;70.45
77240;BME280;66258;53.170;-2.240;2024-03-02T00:32:12;97821.78;;;14.36;70.19
77240;BME280;66258;53.170;-2.240;2024-03-02T00:34:41;97821.22;;;14.34;70.13
77240;BME280;66258;53.170;-2.240;2024-03-02T00:37:08;97813.34;;;14.37;70.07
77240;BME280;66258;53.170;-2.240;2024-03-02T00:39:35;97817.16;;;14.36;69.83
77240;BME280;66258;53.170;-2.240;2024-03-02T00:42:02;97819.38;;;14.39;69.52
77240;BME280;66258;53.170;-2.240;2024-03-02T00:44:29;97815.81;;;14.39;69.52
77240;BME280;66258;53.170;-2.240;2024-03-02T00:46:56;97814.97;;;14.33;69.53
77240;BME280;66258;53.170;-2.240;2024-03-02T00:49:25;97819.81;;;14.31;70.01
77240;BME280;66258;53.170;-2.240;2024-03-02T00:51:54;97832.34;;;14.32;69.89
77240;BME280;66258;53.170;-2.240;2024-03-02T00:54:22;97819.03;;;14.36;69.79
77240;BME280;66258;53.170;-2.240;2024-03-02T00:56:50;97820.44;;;14.38;69.84
77240;BME280;66258;53.170;-2.240;2024-03-02T00:59:17;97824.75;;;14.34;69.85
77240;BME280;66258;53.170;-2.240;2024-03-02T01:01:44;97826.84;;;14.27;70.14
77240;BME280;66258;53.170;-2.240;2024-03-02T01:04:10;97822.72;;;14.25;70.25
77240;BME280;66258;53.170;-2.240;2024-03-02T01:06:37;97819.16;;;14.24;70.57
77240;BME280;66258;53.170;-2.240;2024-03-02T01:09:05;97811.66;;;14.31;70.41
77240;BME280;66258;53.170;-2.240;2024-03-02T01:11:32;97812.66;;;14.42;69.97
77240;BME280;66258;53.170;-2.240;2024-03-02T01:13:59;97809.09;;;14.25;70.07
77240;BME280;66258;53.170;-2.240;2024-03-02T01:16:25;97811.00;;;14.24;70.17
77240;BME280;66258;53.170;-2.240;2024-03-02T01:18:52;97803.91;;;14.23;69.84
77240;BME280;66258;53.170;-2.240;2024-03-02T01:21:19;97813.22;;;14.27;69.82
77240;BME280;66258;53.170;-2.240;2024-03-02T01:23:46;97809.22;;;14.13;70.07
77240;BME280;66258;53.170;-2.240;2024-03-02T01:26:14;97815.78;;;14.17;70.52
77240;BME280;66258;53.170;-2.240;2024-03-02T01:28:41;97811.75;;;14.20;70.33
77240;BME280;66258;53.170;-2.240;2024-03-02T01:31:07;97813.66;;;14.19;70.49
77240;BME280;66258;53.170;-2.240;2024-03-02T01:33:34;97814.97;;;14.17;70.58
77240;BME280;66258;53.170;-2.240;2024-03-02T01:36:01;97808.41;;;14.13;70.64
77240;BME280;66258;53.170;-2.240;2024-03-02T01:38:28;97813.75;;;14.07;70.98
77240;BME280;66258;53.170;-2.240;2024-03-02T01:40:54;97811.13;;;14.13;70.82
77240;BME280;66258;53.170;-2.240;2024-03-02T01:43:23;97809.84;;;14.20;70.73
77240;BME280;66258;53.170;-2.240;2024-03-02T01:45:49;97803.25;;;14.16;70.92
77240;BME280;66258;53.170;-2.240;2024-03-02T01:48:16;97803.41;;;14.26;70.54
77240;BME280;66258;53.170;-2.240;2024-03-02T01:50:43;97801.19;;;14.23;70.36
77240;BME280;66258;53.170;-2.240;2024-03-02T01:53:09;97802.66;;;14.31;70.24
77240;BME280;66258;53.170;-2.240;2024-03-02T01:55:36;97795.25;;;14.26;70.09
77240;BME280;66258;53.170;-2.240;2024-03-02T01:58:03;97807.28;;;14.30;70.01
77240;BME280;66258;53.170;-2.240;2024-03-02T02:00:31;97808.41;;;14.34;69.81
77240;BME280;66258;53.170;-2.240;2024-03-02T02:02:58;97802.97;;;14.34;69.65
77240;BME280;66258;53.170;-2.240;2024-03-02T02:05:25;97801.59;;;14.49;69.38
77240;BME280;66258;53.170;-2.240;2024-03-02T02:07:52;97799.44;;;14.51;69.22
77240;BME280;66258;53.170;-2.240;2024-03-02T02:10:19;97795.72;;;14.40;68.71
77240;BME280;66258;53.170;-2.240;2024-03-02T02:12:45;97788.50;;;14.29;68.31
77240;BME280;66258;53.170;-2.240;2024-03-02T02:15:25;97781.44;;;14.11;67.87
77240;BME280;66258;53.170;-2.240;2024-03-02T02:17:53;97777.09;;;13.93;67.56
77240;BME280;66258;53.170;-2.240;2024-03-02T02:20:20;97785.50;;;13.75;67.90
77240;BME280;66258;53.170;-2.240;2024-03-02T02:22:58;97777.28;;;13.70;67.61
77240;BME280;66258;53.170;-2.240;2024-03-02T02:25:25;97778.66;;;13.56;67.85
77240;BME280;66258;53.170;-2.240;2024-03-02T02:27:52;97783.78;;;13.52;68.61
77240;BME280;66258;53.170;-2.240;2024-03-02T02:30:20;97768.53;;;13.51;68.69
77240;BME280;66258;53.170;-2.240;2024-03-02T02:32:47;97778.84;;;13.49;68.48
77240;BME280;66258;53.170;-2.240;2024-03-02T02:35:14;97778.19;;;13.42;68.48
77240;BME280;66258;53.170;-2.240;2024-03-02T02:37:41;97776.03;;;13.44;68.48
77240;BME280;66258;53.170;-2.240;2024-03-02T02:40:10;97776.19;;;13.37;68.54
77240;BME280;66258;53.170;-2.240;2024-03-02T02:42:37;97771.56;;;13.21;69.70
77240;BME280;66258;53.170;-2.240;2024-03-02T02:45:04;97777.16;;;13.31;70.47
77240;BME280;66258;53.170;-2.240;2024-03-02T02:47:31;97780.31;;;13.40;71.05
77240;BME280;66258;53.170;-2.240;2024-03-02T02:49:58;97780.66;;;13.44;71.53
77240;BME280;66258;53.170;-2.240;2024-03-02T02:52:24;97781.81;;;13.48;72.57
77240;BME280;66258;53.170;-2.240;2024-03-02T02:54:51;97776.69;;;13.51;72.88
77240;BME280;66258;53.170;-2.240;2024-03-02T02:57:19;97770.84;;;13.43;73.88
77240;BME280;66258;53.170;-2.240;2024-03-02T02:59:46;97768.03;;;13.37;74.09
77240;BME280;66258;53.170;-2.240;2024-03-02T03:02:13;97757.84;;;13.45;74.50
77240;BME280;66258;53.170;-2.240;2024-03-02T03:04:40;97758.34;;;13.41;74.11
77240;BME280;66258;53.170;-2.240;2024-03-02T03:07:06;97756.34;;;13.37;74.30
77240;BME280;66258;53.170;-2.240;2024-03-02T03:09:33;97757.66;;;13.51;73.88
77240;BME280;66258;53.170;-2.240;2024-03-02T03:12:03;97751.09;;;13.47;73.25
77240;BME280;66258;53.170;-2.240;2024-03-02T03:14:32;97746.06;;;13.56;72.89
77240;BME280;66258;53.170;-2.240;2024-03-02T03:16:58;97744.75;;;13.58;72.09
77240;BME280;66258;53.170;-2.240;2024-03-02T03:19:25;97744.25;;;13.61;71.72
77240;BME280;66258;53.170;-2.240;2024-03-02T03:21:52;97744.59;;;13.48;71.33
77240;BME280;66258;53.170;-2.240;2024-03-02T03:24:18;97746.16;;;13.44;71.48
77240;BME280;66258;53.170;-2.240;2024-03-02T03:26:45;97747.56;;;13.47;71.11
77240;BME280;66258;53.170;-2.240;2024-03-02T03:29:12;97753.47;;;13.77;70.96
77240;BME280;66258;53.170;-2.240;2024-03-02T03:31:40;97758.13;;;13.98;69.05
77240;BME280;66258;53.170;-2.240;2024-03-02T03:34:07;97748.81;;;14.11;68.10
77240;BME280;66258;53.170;-2.240;2024-03-02T03:36:33;97754.66;;;14.03;67.84
77240;BME280;66258;53.170;-2.240;2024-03-02T03:39:00;97748.56;;;13.96;68.25
77240;BME280;66258;53.170;-2.240;2024-03-02T03:41:27;97753.34;;;14.05;68.17
77240;BME280;66258;53.170;-2.240;2024-03-02T03:43:53;97753.91;;;14.07;68.02
77240;BME280;66258;53.170;-2.240;2024-03-02T03:46:20;97747.91;;;14.05;67.88
77240;BME280;66258;53.170;-2.240;2024-03-02T03:48:48;97745.19;;;14.05;67.88
77240;BME280;66258;53.170;-2.240;2024-03-02T03:51:15;97749.56;;;14.06;67.87
77240;BME280;66258;53.170;-2.240;2024-03-02T03:53:42;97749.63;;;14.12;67.89
77240;BME280;66258;53.170;-2.240;2024-03-02T03:56:08;97745.69;;;14.02;68.07
77240;BME280;66258;53.170;-2.240;2024-03-02T03:58:35;97742.13;;;14.02;68.03
77240;BME280;66258;53.170;-2.240;2024-03-02T04:01:02;97739.91;;;13.99;68.23
77240;BME280;66258;53.170;-2.240;2024-03-02T04:03:29;97742.38;;;14.00;67.90
77240;BME280;66258;53.170;-2.240;2024-03-02T04:05:57;97742.88;;;13.97;67.75
77240;BME280;66258;53.170;-2.240;2024-03-02T04:08:24;97743.44;;;13.99;67.75
77240;BME280;66258;53.170;-2.240;2024-03-02T04:10:50;97744.84;;;14.02;67.79
77240;BME280;66258;53.170;-2.240;2024-03-02T04:13:17;97746.63;;;13.91;68.50
77240;BME280;66258;53.170;-2.240;2024-03-02T04:15:44;97750.78;;;13.99;68.21
77240;BME280;66258;53.170;-2.240;2024-03-02T04:18:10;97758.13;;;13.98;68.65
77240;BME280;66258;53.170;-2.240;2024-03-02T04:20:41;97759.69;;;14.11;68.67
77240;BME280;66258;53.170;-2.240;2024-03-02T04:23:09;97754.25;;;14.11;68.73
77240;BME280;66258;53.170;-2.240;2024-03-02T04:25:35;97755.38;;;14.15;68.87
77240;BME280;66258;53.170;-2.240;2024-03-02T04:28:02;97754.00;;;14.13;69.16
77240;BME280;66258;53.170;-2.240;2024-03-02T04:30:29;97755.38;;;14.15;68.97
77240;BME280;66258;53.170;-2.240;2024-03-02T04:32:56;97747.16;;;14.10;68.74
77240;BME280;66258;53.170;-2.240;2024-03-02T04:35:23;97744.19;;;14.12;68.95
77240;BME280;66258;53.170;-2.240;2024-03-02T04:37:49;97755.38;;;14.15;68.86
77240;BME280;66258;53.170;-2.240;2024-03-02T04:40:17;97760.31;;;14.18;68.31
77240;BME280;66258;53.170;-2.240;2024-03-02T04:42:44;97748.59;;;14.18;68.26
77240;BME280;66258;53.170;-2.240;2024-03-02T04:45:11;97753.22;;;14.17;68.29
77240;BME280;66258;53.170;-2.240;2024-03-02T04:47:37;97753.09;;;14.07;68.38
77240;BME280;66258;53.170;-2.240;2024-03-02T04:50:06;97752.19;;;14.01;68.10
77240;BME280;66258;53.170;-2.240;2024-03-02T04:52:32;97748.31;;;13.97;67.66
77240;BME280;66258;53.170;-2.240;2024-03-02T04:54:59;97748.66;;;14.01;67.64
77240;BME280;66258;53.170;-2.240;2024-03-02T04:57:27;97750.31;;;13.85;67.64
77240;BME280;66258;53.170;-2.240;2024-03-02T04:59:54;97746.22;;;13.83;67.71
77240;BME280;66258;53.170;-2.240;2024-03-02T05:02:21;97745.06;;;13.79;67.73
77240;BME280;66258;53.170;-2.240;2024-03-02T05:04:47;97749.91;;;13.76;67.64
77240;BME280;66258;53.170;-2.240;2024-03-02T05:07:14;97755.34;;;13.76;67.61
77240;BME280;66258;53.170;-2.240;2024-03-02T05:09:41;97756.66;;;13.74;67.23
77240;BME280;66258;53.170;-2.240;2024-03-02T05:12:08;97752.72;;;13.82;67.41
77240;BME280;66258;53.170;-2.240;2024-03-02T05:14:36;97746.81;;;13.68;68.13
77240;BME280;66258;53.170;-2.240;2024-03-02T05:17:03;97752.31;;;13.56;70.07
77240;BME280;66258;53.170;-2.240;2024-03-02T05:19:30;97750.97;;;13.75;71.01
77240;BME280;66258;53.170;-2.240;2024-03-02T05:21:56;97756.91;;;13.89;71.50
77240;BME280;66258;53.170;-2.240;2024-03-02T05:24:23;97755.59;;;13.92;71.22
77240;BME280;66258;53.170;-2.240;2024-03-02T05:26:50;97753.72;;;14.14;71.26
77240;BME280;66258;53.170;-2.240;2024-03-02T05:29:17;97754.38;;;14.21;70.80
77240;BME280;66258;53.170;-2.240;2024-03-02T05:31:45;97754.13;;;14.23;70.37
77240;BME280;66258;53.170;-2.240;2024-03-02T05:34:11;97749.81;;;14.27;70.33
77240;BME280;66258;53.170;-2.240;2024-03-02T05:36:38;97752.38;;;14.33;70.09
77240;BME280;66258;53.170;-2.240;2024-03-02T05:39:05;97762.97;;;14.35;70.08
77240;BME280;66258;53.170;-2.240;2024-03-02T05:41:32;97755.13;;;14.38;69.95
77240;BME280;66258;53.170;-2.240;2024-03-02T05:43:59;97759.19;;;14.36;69.56
77240;BME280;66258;53.170;-2.240;2024-03-02T05:46:25;97763.75;;;14.30;69.61
77240;BME280;66258;53.170;-2.240;2024-03-02T05:48:53;97760.97;;;14.25;68.92
77240;BME280;66258;53.170;-2.240;2024-03-02T05:51:20;97753.97;;;14.34;69.01
77240;BME280;66258;53.170;-2.240;2024-03-02T05:53:47;97754.06;;;14.39;68.59
77240;BME280;66258;53.170;-2.240;2024-03-02T05:56:13;97751.94;;;14.03;69.53
77240;BME280;66258;53.170;-2.240;2024-03-02T05:58:40;97752.47;;;13.83;71.24
77240;BME280;66258;53.170;-2.240;2024-03-02T06:01:07;97750.31;;;13.85;72.04
77240;BME280;66258;53.170;-2.240;2024-03-02T06:03:34;97756.34;;;13.87;72.05
77240;BME280;66258;53.170;-2.240;2024-03-02T06:06:02;97747.19;;;13.76;71.96
77240;BME280;66258;53.170;-2.240;2024-03-02T06:08:29;97753.78;;;13.81;72.23
77240;BME280;66258;53.170;-2.240;2024-03-02T06:10:56;97754.28;;;13.77;71.97
77240;BME280;66258;53.170;-2.240;2024-03-02T06:13:22;97753.63;;;13.87;72.01
77240;BME280;66258;53.170;-2.240;2024-03-02T06:15:49;97751.66;;;13.83;71.55
77240;BME280;66258;53.170;-2.240;2024-03-02T06:18:16;97751.16;;;13.86;71.46
77240;BME280;66258;53.170;-2.240;2024-03-02T06:20:43;97754.19;;;13.89;71.39
77240;BME280;66258;53.170;-2.240;2024-03-02T06:23:11;97749.91;;;13.76;71.32
77240;BME280;66258;53.170;-2.240;2024-03-02T06:25:37;97750.81;;;13.82;71.38
77240;BME280;66258;53.170;-2.240;2024-03-02T06:28:04;97758.97;;;13.82;71.22
77240;BME280;66258;53.170;-2.240;2024-03-02T06:30:31;97745.22;;;13.72;71.30
77240;BME280;66258;53.170;-2.240;2024-03-02T06:32:58;97753.56;;;13.65;71.42
77240;BME280;66258;53.170;-2.240;2024-03-02T06:35:25;97751.09;;;13.64;71.58
77240;BME280;66258;53.170;-2.240;2024-03-02T06:37:51;97749.78;;;13.66;71.09
77240;BME280;66258;53.170;-2.240;2024-03-02T06:40:19;97751.19;;;13.69;71.02
77240;BME280;66258;53.170;-2.240;2024-03-02T06:42:46;97755.72;;;13.63;70.88
77240;BME280;66258;53.170;-2.240;2024-03-02T06:45:13;97747.47;;;13.58;71.19
77240;BME280;66258;53.170;-2.240;2024-03-02T06:47:40;97749.25;;;13.53;71.23
77240;BME280;66258;53.170;-2.240;2024-03-02T06:50:07;97747.47;;;13.58;71.49
77240;BME280;66258;53.170;-2.240;2024-03-02T06:52:34;97757.59;;;13.63;71.35
77240;BME280;66258;53.170;-2.240;2024-03-02T06:55:01;97753.56;;;13.65;71.23
77240;BME280;66258;53.170;-2.240;2024-03-02T06:57:29;97758.41;;;13.63;71.38
77240;BME280;66258;53.170;-2.240;2024-03-02T06:59:56;97755.03;;;13.56;71.61
77240;BME280;66258;53.170;-2.240;2024-03-02T07:02:22;97757.84;;;13.61;71.61
77240;BME280;66258;53.170;-2.240;2024-03-02T07:04:49;97758.25;;;13.53;72.25
77240;BME280;66258;53.170;-2.240;2024-03-02T07:07:16;97763.84;;;13.63;71.74
77240;BME280;66258;53.170;-2.240;2024-03-02T07:09:42;97764.50;;;13.54;72.08
77240;BME280;66258;53.170;-2.240;2024-03-02T07:12:09;97777.59;;;13.57;72.62
77240;BME280;66258;53.170;-2.240;2024-03-02T07:14:37;97766.66;;;13.68;72.24
77240;BME280;66258;53.170;-2.240;2024-03-02T07:17:04;97768.38;;;13.74;72.53
77240;BME280;66258;53.170;-2.240;2024-03-02T07:19:31;97770.50;;;13.72;72.43
77240;BME280;66258;53.170;-2.240;2024-03-02T07:21:58;97766.81;;;13.79;72.52
77240;BME280;66258;53.170;-2.240;2024-03-02T07:24:24;97773.47;;;13.88;72.48
77240;BME280;66258;53.170;-2.240;2024-03-02T07:26:51;97768.78;;;13.83;72.27
77240;BME280;66258;53.170;-2.240;2024-03-02T07:29:20;97771.66;;;14.32;70.03
77240;BME280;66258;53.170;-2.240;2024-03-02T07:31:48;97773.34;;;14.38;69.38
77240;BME280;66258;53.170;-2.240;2024-03-02T07:34:15;97762.47;;;14.38;69.25
77240;BME280;66258;53.170;-2.240;2024-03-02T07:36:42;97764.53;;;14.48;68.67
77240;BME280;66258;53.170;-2.240;2024-03-02T07:39:09;97763.03;;;14.40;68.69
77240;BME280;66258;53.170;-2.240;2024-03-02T07:41:35;97764.69;;;14.19;69.46
77240;BME280;66258;53.170;-2.240;2024-03-02T07:44:02;97761.28;;;13.73;71.82
77240;BME280;66258;53.170;-2.240;2024-03-02T07:46:29;97763.44;;;13.71;73.00
77240;BME280;66258;53.170;-2.240;2024-03-02T07:48:57;97774.34;;;14.10;71.60
77240;BME280;66258;53.170;-2.240;2024-03-02T07:51:24;97762.50;;;13.99;72.11
77240;BME280;66258;53.170;-2.240;2024-03-02T07:53:50;97767.91;;;14.16;71.60
77240;BME280;66258;53.170;-2.240;2024-03-02T07:56:17;97763.09;;;14.23;71.57
77240;BME280;66258;53.170;-2.240;2024-03-02T07:58:45;97764.25;;;14.27;71.42
77240;BME280;66258;53.170;-2.240;2024-03-02T08:01:11;97765.97;;;14.33;71.41
77240;BME280;66258;53.170;-2.240;2024-03-02T08:03:38;97769.44;;;13.90;73.07
77240;BME280;66258;53.170;-2.240;2024-03-02T08:06:07;97766.47;;;13.75;74.51
77240;BME280;66258;53.170;-2.240;2024-03-02T08:08:33;97774.06;;;13.73;74.68
77240;BME280;66258;53.170;-2.240;2024-03-02T08:11:00;97767.06;;;13.77;75.15
77240;BME280;66258;53.170;-2.240;2024-03-02T08:13:27;97764.00;;;13.90;74.90
77240;BME280;66258;53.170;-2.240;2024-03-02T08:15:54;97762.53;;;13.83;75.31
77240;BME280;66258;53.170;-2.240;2024-03-02T08:18:21;97765.81;;;13.85;75.31
77240;BME280;66258;53.170;-2.240;2024-03-02T08:20:48;97768.22;;;13.81;75.61
77240;BME280;66258;53.170;-2.240;2024-03-02T08:23:16;97771.25;;;13.85;75.59
77240;BME280;66258;53.170;-2.240;2024-03-02T08:25:43;97769.94;;;13.87;75.61
77240;BME280;66258;53.170;-2.240;2024-03-02T08:28:10;97769.69;;;13.89;75.67
77240;BME280;66258;53.170;-2.240;2024-03-02T08:30:37;97769.94;;;13.87;75.76
77240;BME280;66258;53.170;-2.240;2024-03-02T08:33:04;97767.97;;;13.83;75.80
77240;BME280;66258;53.170;-2.240;2024-03-02T08:35:31;97763.81;;;13.97;75.83
77240;BME280;66258;53.170;-2.240;2024-03-02T08:37:58;97760.22;;;13.91;75.86
77240;BME280;66258;53.170;-2.240;2024-03-02T08:40:26;97759.88;;;13.88;75.93
77240;BME280;66258;53.170;-2.240;2024-03-02T08:42:52;97751.41;;;13.84;76.46
77240;BME280;66258;53.170;-2.240;2024-03-02T08:45:19;97752.88;;;13.92;76.73
77240;BME280;66258;53.170;-2.240;2024-03-02T08:47:46;97750.09;;;13.87;76.97
77240;BME280;66258;53.170;-2.240;2024-03-02T08:50:13;97757.72;;;14.06;76.74
77240;BME280;66258;53.170;-2.240;2024-03-02T08:52:40;97761.94;;;14.19;76.78
77240;BME280;66258;53.170;-2.240;2024-03-02T08:55:07;97751.16;;;14.24;77.03
77240;BME280;66258;53.170;-2.240;2024-03-02T08:57:35;97755.34;;;14.32;77.19
77240;BME280;66258;53.170;-2.240;2024-03-02T09:00:03;97763.59;;;14.20;77.52
77240;BME280;66258;53.170;-2.240;2024-03-02T09:02:30;97754.38;;;14.21;77.83
77240;BME280;66258;53.170;-2.240;2024-03-02T09:04:57;97741.91;;;14.25;77.83
77240;BME280;66258;53.170;-2.240;2024-03-02T09:07:24;97752.47;;;14.22;77.88
77240;BME280;66258;53.170;-2.240;2024-03-02T09:09:50;97754.81;;;14.13;77.95
77240;BME280;66258;53.170;-2.240;2024-03-02T09:12:17;97752.59;;;14.49;76.42
77240;BME280;66258;53.170;-2.240;2024-03-02T09:14:46;97756.56;;;14.63;74.36
77240;BME280;66258;53.170;-2.240;2024-03-02T09:17:12;97759.28;;;14.63;73.94
77240;BME280;66258;53.170;-2.240;2024-03-02T09:19:40;97760.28;;;14.57;73.91
77240;BME280;66258;53.170;-2.240;2024-03-02T09:22:07;97757.06;;;14.60;73.71
77240;BME280;66258;53.170;-2.240;2024-03-02T09:24:34;97762.06;;;14.46;73.60
77240;BME280;66258;53.170;-2.240;2024-03-02T09:27:01;97768.19;;;13.98;74.88
77240;BME280;66258;53.170;-2.240;2024-03-02T09:29:28;97748.72;;;13.67;76.73
77240;BME280;66258;53.170;-2.240;2024-03-02T09:31:56;97753.81;;;13.47;78.05
77240;BME280;66258;53.170;-2.240;2024-03-02T09:34:22;97749.03;;;13.54;78.93
77240;BME280;66258;53.170;-2.240;2024-03-02T09:36:50;97746.06;;;13.56;79.37
77240;BME280;66258;53.170;-2.240;2024-03-02T09:39:17;97749.28;;;13.69;79.51
77240;BME280;66258;53.170;-2.240;2024-03-02T09:41:44;97747.28;;;13.82;79.94
77240;BME280;66258;53.170;-2.240;2024-03-02T09:44:10;97744.59;;;14.03;80.18
77240;BME280;66258;53.170;-2.240;2024-03-02T09:46:37;97752.50;;;14.05;80.55
77240;BME280;66258;53.170;-2.240;2024-03-02T09:49:06;97749.13;;;13.98;80.85
77240;BME280;66258;53.170;-2.240;2024-03-02T09:51:32;97752.34;;;14.12;81.29
77240;BME280;66258;53.170;-2.240;2024-03-02T09:54:00;97749.66;;;14.17;81.58
77240;BME280;66258;53.170;-2.240;2024-03-02T09:56:43;97744.13;;;14.28;82.52
77240;BME280;66258;53.170;-2.240;2024-03-02T09:59:10;97740.72;;;14.60;83.08
77240;BME280;66258;53.170;-2.240;2024-03-02T10:01:37;97745.13;;;14.88;81.78
77240;BME280;66258;53.170;-2.240;2024-03-02T10:04:06;97732.97;;;14.95;82.58
77240;BME280;66258;53.170;-2.240;2024-03-02T10:06:33;97738.50;;;15.05;82.91
77240;BME280;66258;53.170;-2.240;2024-03-02T10:09:00;97738.06;;;15.19;83.05
77240;BME280;66258;53.170;-2.240;2024-03-02T10:11:28;97734.38;;;15.30;81.98
77240;BME280;66258;53.170;-2.240;2024-03-02T10:14:08;97735.97;;;15.26;82.66
77240;BME280;66258;53.170;-2.240;2024-03-02T10:16:35;97739.00;;;15.29;82.61
77240;BME280;66258;53.170;-2.240;2024-03-02T10:19:20;97736.34;;;15.07;81.75
77240;BME280;66258;53.170;-2.240;2024-03-02T10:21:48;97729.16;;;14.96;81.71
77240;BME280;66258;53.170;-2.240;2024-03-02T10:24:15;97736.78;;;14.94;82.12
77240;BME280;66258;53.170;-2.240;2024-03-02T10:26:42;97729.09;;;14.91;82.69
77240;BME280;66258;53.170;-2.240;2024-03-02T10:29:09;97726.69;;;14.95;82.67
77240;BME280;66258;53.170;-2.240;2024-03-02T10:31:37;97728.84;;;14.93;82.29
77240;BME280;66258;53.170;-2.240;2024-03-02T10:34:04;97728.03;;;14.92;81.94
77240;BME280;66258;53.170;-2.240;2024-03-02T10:36:32;97733.00;;;15.00;81.75
77240;BME280;66258;53.170;-2.240;2024-03-02T10:39:01;97723.19;;;14.99;81.66
77240;BME280;66258;53.170;-2.240;2024-03-02T10:41:28;97724.72;;;15.17;81.39
77240;BME280;66258;53.170;-2.240;2024-03-02T10:43:56;97721.06;;;15.06;81.16
77240;BME280;66258;53.170;-2.240;2024-03-02T10:46:23;97719.63;;;14.99;81.91
77240;BME280;66258;53.170;-2.240;2024-03-02T10:48:53;97730.06;;;15.07;82.00
77240;BME280;66258;53.170;-2.240;2024-03-02T10:51:20;97732.34;;;15.15;81.72
77240;BME280;66258;53.170;-2.240;2024-03-02T10:53:48;97736.06;;;15.36;81.49
77240;BME280;66258;53.170;-2.240;2024-03-02T10:56:21;97735.09;;;15.52;81.32
77240;BME280;66258;53.170;-2.240;2024-03-02T10:58:51;97732.47;;;15.62;80.77
77240;BME280;66258;53.170;-2.240;2024-03-02T11:01:22;97726.63;;;15.48;80.76
77240;BME280;66258;53.170;-2.240;2024-03-02T11:03:49;97737.38;;;15.60;81.00
77240;BME280;66258;53.170;-2.240;2024-03-02T11:06:16;97737.28;;;15.50;80.90
77240;BME280;66258;53.170;-2.240;2024-03-02T11:08:48;97742.09;;;15.70;80.54
77240;BME280;66258;53.170;-2.240;2024-03-02T11:11:22;97743.16;;;15.69;79.90
77240;BME280;66258;53.170;-2.240;2024-03-02T11:13:56;97736.81;;;15.95;80.25
77240;BME280;66258;53.170;-2.240;2024-03-02T11:16:31;97737.75;;;16.16;79.78
77240;BME280;66258;53.170;-2.240;2024-03-02T11:18:59;97740.06;;;16.44;80.31
77240;BME280;66258;53.170;-2.240;2024-03-02T11:21:26;97739.59;;;16.58;78.71
77240;BME280;66258;53.170;-2.240;2024-03-02T11:23:55;97738.16;;;15.93;77.20
77240;BME280;66258;53.170;-2.240;2024-03-02T11:26:22;97742.09;;;16.12;77.84
77240;BME280;66258;53.170;-2.240;2024-03-02T11:28:49;97740.22;;;16.18;78.75
77240;BME280;66258;53.170;-2.240;2024-03-02T11:31:15;97737.38;;;16.02;78.58
77240;BME280;66258;53.170;-2.240;2024-03-02T11:33:42;97747.91;;;15.84;78.27
77240;BME280;66258;53.170;-2.240;2024-03-02T11:36:09;97737.91;;;15.94;79.03
77240;BME280;66258;53.170;-2.240;2024-03-02T11:38:38;97743.41;;;16.04;78.46
77240;BME280;66258;53.170;-2.240;2024-03-02T11:41:07;97743.84;;;15.86;78.13
77240;BME280;66258;53.170;-2.240;2024-03-02T11:43:37;97735.28;;;15.72;77.70
77240;BME280;66258;53.170;-2.240;2024-03-02T11:46:05;97739.84;;;15.62;78.65
77240;BME280;66258;53.170;-2.240;2024-03-02T11:48:32;97734.16;;;15.68;78.90
77240;BME280;66258;53.170;-2.240;2024-03-02T11:51:00;97726.41;;;15.55;79.15
77240;BME280;66258;53.170;-2.240;2024-03-02T11:53:27;97738.88;;;15.46;80.18
77240;BME280;66258;53.170;-2.240;2024-03-02T11:55:58;97730.81;;;15.56;81.66
77240;BME280;66258;53.170;-2.240;2024-03-02T11:58:26;97722.19;;;15.69;82.19
77240;BME280;66258;53.170;-2.240;2024-03-02T12:00:54;97722.91;;;15.97;82.59
77240;BME280;66258;53.170;-2.240;2024-03-02T12:03:22;97728.22;;;16.24;83.53
77240;BME280;66258;53.170;-2.240;2024-03-02T12:05:49;97717.06;;;16.30;82.61
77240;BME280;66258;53.170;-2.240;2024-03-02T12:08:16;97724.50;;;16.45;82.48
77240;BME280;66258;53.170;-2.240;2024-03-02T12:10:43;97723.72;;;16.49;82.09
77240;BME280;66258;53.170;-2.240;2024-03-02T12:13:22;97720.22;;;16.64;82.10
77240;BME280;66258;53.170;-2.240;2024-03-02T12:15:53;97718.38;;;16.85;81.94
77240;BME280;66258;53.170;-2.240;2024-03-02T12:18:20;97722.25;;;17.09;82.10
77240;BME280;66258;53.170;-2.240;2024-03-02T12:20:48;97708.63;;;17.20;81.20
77240;BME280;66258;53.170;-2.240;2024-03-02T12:23:15;97715.19;;;17.24;79.70
77240;BME280;66258;53.170;-2.240;2024-03-02T12:25:43;97707.53;;;17.31;79.03
77240;BME280;66258;53.170;-2.240;2024-03-02T12:28:11;97712.50;;;17.64;79.22
77240;BME280;66258;53.170;-2.240;2024-03-02T12:30:38;97715.66;;;18.22;80.44
77240;BME280;66258;53.170;-2.240;2024-03-02T12:33:06;97724.19;;;18.80;79.33
77240;BME280;66258;53.170;-2.240;2024-03-02T12:35:33;97725.19;;;18.99;76.41
77240;BME280;66258;53.170;-2.240;2024-03-02T12:38:00;97720.22;;;19.06;74.07
77240;BME280;66258;53.170;-2.240;2024-03-02T12:40:27;97725.75;;;19.35;73.25
77240;BME280;66258;53.170;-2.240;2024-03-02T12:42:53;97722.88;;;19.55;72.57
77240;BME280;66258;53.170;-2.240;2024-03-02T12:45:20;97725.19;;;19.38;69.36
77240;BME280;66258;53.170;-2.240;2024-03-02T12:47:47;97722.53;;;19.28;69.77
77240;BME280;66258;53.170;-2.240;2024-03-02T12:50:15;97719.69;;;19.04;68.52